createdAt,value
2023-03-27T00:02:03.161Z,0.40
2023-03-27T00:04:34.117Z,0.40
2023-03-27T00:07:35.948Z,0.60
2023-03-27T00:10:08.217Z,0.50
2023-03-27T00:12:40.477Z,0.68
2023-03-27T00:15:14.020Z,0.50
2023-03-27T00:17:45.723Z,0.58
2023-03-27T00:20:28.036Z,0.50
2023-03-27T00:22:58.175Z,0.60
2023-03-27T00:25:29.885Z,0.70
2023-03-27T00:28:00.140Z,0.73
2023-03-27T00:30:30.830Z,0.60
2023-03-27T00:33:01.184Z,0.63
2023-03-27T00:35:36.252Z,0.65
2023-03-27T00:38:06.439Z,0.70
2023-03-27T00:40:36.529Z,0.80
2023-03-27T00:43:23.173Z,0.62
2023-03-27T00:45:55.761Z,0.80
2023-03-27T00:48:26.142Z,0.68
2023-03-27T00:51:07.244Z,0.78
2023-03-27T00:53:39.759Z,0.85
2023-03-27T00:56:11.229Z,0.93
2023-03-27T00:58:55.394Z,0.90
2023-03-27T01:01:25.527Z,1.00
2023-03-27T01:04:15.839Z,0.98
2023-03-27T01:06:46.151Z,0.80
2023-03-27T01:09:20.349Z,0.82
2023-03-27T01:15:44.514Z,1.07
2023-03-27T01:18:55.668Z,0.90
2023-03-27T01:21:50.599Z,0.90
2023-03-27T01:27:23.665Z,1.00
2023-03-27T01:33:30.598Z,0.98
2023-03-27T01:36:25.954Z,1.00
2023-03-27T01:39:19.204Z,1.27
2023-03-27T01:42:23.454Z,1.10
2023-03-27T01:45:20.989Z,1.20
2023-03-27T01:48:08.798Z,1.07
2023-03-27T01:50:58.065Z,0.90
2023-03-27T01:53:49.529Z,0.83
2023-03-27T01:59:21.215Z,1.20
2023-03-27T02:02:03.725Z,0.70
2023-03-27T02:04:49.955Z,1.00
2023-03-27T02:07:36.296Z,1.00
2023-03-27T02:10:18.575Z,1.00
2023-03-27T02:12:56.477Z,1.00
2023-03-27T02:15:33.254Z,1.00
2023-03-27T02:18:12.294Z,1.10
2023-03-27T02:21:25.961Z,1.00
2023-03-27T02:24:32.051Z,1.10
2023-03-27T02:27:32.149Z,1.12
2023-03-27T02:30:45.220Z,1.10
2023-03-27T02:33:40.831Z,1.10
2023-03-27T02:36:40.801Z,1.07
2023-03-27T02:42:38.772Z,1.00
2023-03-27T02:45:38.596Z,0.98
2023-03-27T02:48:30.475Z,0.90
2023-03-27T02:54:46.587Z,0.93
2023-03-27T02:57:31.176Z,0.80
2023-03-27T03:09:41.376Z,1.00
2023-03-27T03:12:21.101Z,0.70
2023-03-27T03:15:21.838Z,0.98
2023-03-27T03:18:10.171Z,1.00
2023-03-27T03:23:36.232Z,0.80
2023-03-27T03:26:07.507Z,1.12
2023-03-27T03:28:37.663Z,0.90
2023-03-27T03:31:11.318Z,0.70
2023-03-27T03:34:28.731Z,0.78
2023-03-27T03:37:05.287Z,0.80
2023-03-27T03:39:45.215Z,0.90
2023-03-27T03:42:24.110Z,0.90
2023-03-27T03:45:36.062Z,0.93
2023-03-27T03:48:52.104Z,0.90
2023-03-27T03:51:33.920Z,0.90
2023-03-27T04:00:36.508Z,0.90
2023-03-27T04:03:42.914Z,1.00
2023-03-27T04:06:36.489Z,1.00
2023-03-27T04:09:30.072Z,0.95
2023-03-27T04:12:46.538Z,0.70
2023-03-27T04:18:42.128Z,0.85
2023-03-27T04:21:57.198Z,0.70
2023-03-27T04:24:34.300Z,0.80
2023-03-27T04:27:37.371Z,0.70
2023-03-27T04:30:34.696Z,0.70
2023-03-27T04:33:36.085Z,0.80
2023-03-27T04:36:22.167Z,0.75
2023-03-27T04:45:36.664Z,0.78
2023-03-27T04:51:21.584Z,0.80
2023-03-27T04:59:50.570Z,0.70
2023-03-27T05:02:20.958Z,0.70
2023-03-27T05:05:14.244Z,0.77
2023-03-27T05:07:33.323Z,0.60
2023-03-27T05:10:03.556Z,0.80
2023-03-27T05:13:03.798Z,0.50
2023-03-27T05:19:07.075Z,0.65
2023-03-27T05:22:07.545Z,0.80
2023-03-27T05:28:28.970Z,0.90
2023-03-27T05:31:11.381Z,0.60
2023-03-27T05:33:49.999Z,0.60
2023-03-27T05:37:17.177Z,0.57
2023-03-27T05:39:58.759Z,0.60
2023-03-27T05:43:21.171Z,0.60
2023-03-27T05:54:38.593Z,0.70
2023-03-27T05:57:36.093Z,0.68
2023-03-27T06:03:02.284Z,0.50
2023-03-27T06:05:42.464Z,0.75
2023-03-27T06:08:17.492Z,0.70
2023-03-27T06:10:49.809Z,0.50
2023-03-27T06:16:27.112Z,0.65
2023-03-27T06:19:12.683Z,0.50
2023-03-27T06:22:04.393Z,0.70
2023-03-27T06:24:52.478Z,0.80
2023-03-27T06:28:14.989Z,0.70
2023-03-27T06:31:06.219Z,0.62
2023-03-27T06:34:00.759Z,0.50
2023-03-27T06:43:29.005Z,0.65
2023-03-27T06:46:45.940Z,0.50
2023-03-27T06:49:20.053Z,0.60
2023-03-27T06:55:18.896Z,0.60
2023-03-27T06:58:34.989Z,0.60
2023-03-27T07:01:36.227Z,0.60
2023-03-27T07:07:40.340Z,0.70
2023-03-27T07:10:34.778Z,0.50
2023-03-27T07:16:30.901Z,0.50
2023-03-27T07:19:04.336Z,0.53
2023-03-27T07:27:14.445Z,0.50
2023-03-27T07:29:46.684Z,0.60
2023-03-27T07:32:33.992Z,0.57
2023-03-27T07:34:56.063Z,0.50
2023-03-27T07:37:38.395Z,0.60
2023-03-27T07:43:29.006Z,0.60
2023-03-27T07:46:07.989Z,0.50
2023-03-27T07:55:21.508Z,0.50
2023-03-27T07:58:28.227Z,0.40
2023-03-27T08:01:22.092Z,0.50
2023-03-27T08:04:30.749Z,0.50
2023-03-27T08:07:13.920Z,0.50
2023-03-27T08:10:54.751Z,0.60
2023-03-27T08:13:33.495Z,0.60
2023-03-27T08:16:16.432Z,0.60
2023-03-27T08:19:22.471Z,0.65
2023-03-27T08:25:29.436Z,0.62
2023-03-27T08:28:22.189Z,0.50
2023-03-27T08:31:16.500Z,0.50
2023-03-27T08:37:10.951Z,0.40
2023-03-27T08:40:19.881Z,0.60
2023-03-27T08:43:29.059Z,0.60
2023-03-27T08:46:28.073Z,0.60
2023-03-27T08:58:27.316Z,0.60
2023-03-27T09:01:57.938Z,0.60
2023-03-27T09:08:12.300Z,0.50
2023-03-27T09:11:18.519Z,0.53
2023-03-27T09:13:50.091Z,0.50
2023-03-27T09:16:54.644Z,0.70
2023-03-27T09:19:43.988Z,0.75
2023-03-27T09:22:32.981Z,0.70
2023-03-27T09:25:39.145Z,0.60
2023-03-27T09:28:53.010Z,0.65
2023-03-27T09:32:04.943Z,0.50
2023-03-27T09:34:53.073Z,0.55
2023-03-27T09:37:49.403Z,0.60
2023-03-27T09:40:47.508Z,0.70
2023-03-27T09:43:41.963Z,0.53
2023-03-27T09:47:00.506Z,0.68
2023-03-27T09:49:52.059Z,0.70
2023-03-27T09:52:57.526Z,0.50
2023-03-27T09:55:40.611Z,0.57
2023-03-27T09:58:52.020Z,0.60
2023-03-27T10:01:51.381Z,0.62
2023-03-27T10:04:35.651Z,0.68
2023-03-27T10:10:23.919Z,0.70
2023-03-27T10:17:08.301Z,0.50
2023-03-27T10:19:49.115Z,0.50
2023-03-27T10:23:20.347Z,0.55
2023-03-27T10:26:06.070Z,0.60
2023-03-27T10:31:54.434Z,0.62
2023-03-27T10:35:03.214Z,0.60
2023-03-27T10:38:09.859Z,0.60
2023-03-27T10:40:56.538Z,0.53
2023-03-27T10:44:05.120Z,0.60
2023-03-27T10:50:20.300Z,0.60
2023-03-27T10:53:23.300Z,0.70
2023-03-27T10:56:17.534Z,0.60
2023-03-27T10:59:15.904Z,0.55
2023-03-27T11:02:10.781Z,0.53
2023-03-27T11:08:03.811Z,0.60
2023-03-27T11:13:54.933Z,0.50
2023-03-27T11:16:42.643Z,0.50
2023-03-27T11:19:58.031Z,0.35
2023-03-27T11:36:22.081Z,0.57
2023-03-27T11:39:20.592Z,0.35
2023-03-27T11:41:56.747Z,0.50
2023-03-27T11:47:41.712Z,0.40
2023-03-27T11:50:28.192Z,0.42
2023-03-27T11:53:25.082Z,0.45
2023-03-27T11:56:22.919Z,0.53
2023-03-27T11:59:25.803Z,0.30
2023-03-27T12:02:07.963Z,0.40
2023-03-27T12:05:08.072Z,0.40
2023-03-27T12:08:03.346Z,0.30
2023-03-27T12:16:56.861Z,0.33
2023-03-27T12:20:12.919Z,0.33
2023-03-27T12:26:12.859Z,0.30
2023-03-27T12:29:25.988Z,0.20
2023-03-27T12:32:20.522Z,0.20
2023-03-27T12:35:21.387Z,0.30
2023-03-27T12:38:30.355Z,0.20
2023-03-27T12:41:40.998Z,0.40
2023-03-27T12:44:35.108Z,0.40
2023-03-27T12:53:34.576Z,0.40
2023-03-27T12:56:30.353Z,0.40
2023-03-27T13:02:57.982Z,0.35
2023-03-27T13:05:41.881Z,0.40
2023-03-27T13:08:54.354Z,0.50
2023-03-27T13:11:51.250Z,0.40
2023-03-27T13:14:30.823Z,0.37
2023-03-27T13:20:49.752Z,0.40
2023-03-27T13:23:47.204Z,0.44
2023-03-27T13:26:28.501Z,0.40
2023-03-27T13:29:30.822Z,0.30
2023-03-27T13:32:41.056Z,0.40
2023-03-27T13:35:46.175Z,0.40
2023-03-27T13:38:31.329Z,0.30
2023-03-27T13:47:41.555Z,0.42
2023-03-27T13:50:44.026Z,0.30
2023-03-27T13:53:34.007Z,0.32
2023-03-27T13:56:28.342Z,0.40
2023-03-27T14:02:27.667Z,0.45
2023-03-27T14:05:37.020Z,0.50
2023-03-27T14:08:35.262Z,0.50
2023-03-27T14:11:39.378Z,0.45
2023-03-27T14:14:28.335Z,0.50
2023-03-27T14:21:00.066Z,0.40
2023-03-27T14:23:51.302Z,0.50
2023-03-27T14:26:32.957Z,0.40
2023-03-27T14:29:21.083Z,0.40
2023-03-27T14:32:16.721Z,0.45
2023-03-27T14:38:13.202Z,0.40
2023-03-27T14:41:36.338Z,0.30
2023-03-27T14:50:54.064Z,0.50
2023-03-27T14:53:49.738Z,0.40
2023-03-27T14:56:48.061Z,0.47
2023-03-27T15:00:08.392Z,0.47
2023-03-27T15:02:38.514Z,0.30
2023-03-27T15:05:47.595Z,0.40
2023-03-27T15:11:53.445Z,0.40
2023-03-27T15:14:47.596Z,0.65
2023-03-27T15:17:26.136Z,0.50
2023-03-27T15:20:49.284Z,0.50
2023-03-27T15:24:04.691Z,0.30
2023-03-27T15:26:55.044Z,0.45
2023-03-27T15:29:47.661Z,0.43
2023-03-27T15:32:33.003Z,0.40
2023-03-27T15:35:36.155Z,0.53
2023-03-27T15:45:37.854Z,0.40
2023-03-27T15:47:36.983Z,0.50
2023-03-27T15:53:58.180Z,0.40
2023-03-27T15:56:51.145Z,0.50
2023-03-27T15:59:52.953Z,0.40
2023-03-27T16:05:46.460Z,0.50
2023-03-27T16:08:56.564Z,0.50
2023-03-27T16:12:04.172Z,0.50
2023-03-27T16:15:17.597Z,0.42
2023-03-27T16:18:10.618Z,0.50
2023-03-27T16:20:51.729Z,0.40
2023-03-27T16:27:21.670Z,0.40
2023-03-27T16:29:54.425Z,0.50
2023-03-27T16:33:02.020Z,0.60
2023-03-27T16:35:39.710Z,0.70
2023-03-27T16:42:01.334Z,1.20
2023-03-27T16:51:18.450Z,0.80
2023-03-27T16:54:02.160Z,0.72
2023-03-27T17:03:26.405Z,1.00
2023-03-27T17:09:15.339Z,1.00
2023-03-27T17:12:07.110Z,1.10
2023-03-27T17:15:11.853Z,0.93
2023-03-27T17:18:23.487Z,1.27
2023-03-27T17:20:56.601Z,1.10
2023-03-27T17:26:52.732Z,1.10
2023-03-27T17:29:51.406Z,1.10
2023-03-27T17:35:39.997Z,1.10
2023-03-27T17:38:41.833Z,1.35
2023-03-27T17:41:34.024Z,1.20
2023-03-27T17:44:35.952Z,1.12
2023-03-27T17:46:54.035Z,1.30
2023-03-27T17:49:22.778Z,1.00
2023-03-27T17:51:56.336Z,1.02
2023-03-27T17:54:27.649Z,1.20
2023-03-27T18:10:28.216Z,1.00
2023-03-27T18:13:06.751Z,1.00
2023-03-27T18:15:34.733Z,0.80
2023-03-27T18:18:26.185Z,0.90
2023-03-27T18:20:58.314Z,0.80
2023-03-27T18:23:49.593Z,1.00
2023-03-27T18:26:48.234Z,0.98
2023-03-27T18:36:05.309Z,0.75
2023-03-27T18:48:04.053Z,0.80
2023-03-27T18:51:05.330Z,0.73
2023-03-27T18:57:19.730Z,0.82
2023-03-27T19:00:08.918Z,0.78
2023-03-27T19:03:59.016Z,0.80
2023-03-27T19:06:20.982Z,0.70
2023-03-27T19:11:41.892Z,0.70
2023-03-27T19:14:14.850Z,0.60
2023-03-27T19:16:47.921Z,0.70
2023-03-27T19:19:21.054Z,0.80
2023-03-27T19:21:51.948Z,0.60
2023-03-27T19:24:23.066Z,0.70
2023-03-27T19:27:23.822Z,0.65
2023-03-27T19:30:13.381Z,0.63
2023-03-27T19:33:14.270Z,0.90
2023-03-27T19:36:00.887Z,0.70
2023-03-27T19:39:13.099Z,0.80
2023-03-27T19:42:18.978Z,0.60
2023-03-27T19:45:24.135Z,0.68
2023-03-27T19:47:57.740Z,0.67
2023-03-27T19:51:08.410Z,0.80
2023-03-27T19:54:16.577Z,0.87
2023-03-27T19:57:02.836Z,0.80
2023-03-27T20:09:14.453Z,0.70
2023-03-27T20:12:19.868Z,0.88
2023-03-27T20:15:12.145Z,0.60
2023-03-27T20:21:17.745Z,0.60
2023-03-27T20:27:22.586Z,0.50
2023-03-27T20:33:44.941Z,0.60
2023-03-27T20:36:42.173Z,0.60
2023-03-27T20:42:52.710Z,0.60
2023-03-27T20:45:37.237Z,0.70
2023-03-27T20:48:54.330Z,0.88
2023-03-27T20:54:17.783Z,0.70
2023-03-27T21:00:20.146Z,0.63
2023-03-27T21:03:17.444Z,0.60
2023-03-27T21:06:45.636Z,0.50
2023-03-27T21:09:53.033Z,0.50
2023-03-27T21:16:04.787Z,0.60
2023-03-27T22:24:04.432Z,0.50
2023-03-27T22:26:43.470Z,0.62
2023-03-27T22:29:17.924Z,0.65
2023-03-27T22:32:27.318Z,0.50
2023-03-27T22:40:21.794Z,0.62
2023-03-27T22:42:52.057Z,0.65
2023-03-27T22:45:58.874Z,0.50
2023-03-27T22:48:38.991Z,0.53
2023-03-27T22:51:08.603Z,0.60
2023-03-27T22:53:48.926Z,0.57
2023-03-27T22:56:31.721Z,0.50
2023-03-27T23:02:38.003Z,0.60
2023-03-27T23:04:56.605Z,0.53
2023-03-27T23:07:28.091Z,0.62
2023-03-27T23:10:03.675Z,0.68
2023-03-27T23:12:38.985Z,0.33
2023-03-27T23:15:10.493Z,0.60
2023-03-27T23:20:33.862Z,0.60
2023-03-27T23:23:27.141Z,0.50
2023-03-27T23:29:24.226Z,0.50
2023-03-27T23:32:11.061Z,0.60
2023-03-27T23:34:45.854Z,0.60
2023-03-27T23:37:16.562Z,0.60
2023-03-27T23:39:46.981Z,0.60
2023-03-27T23:42:17.274Z,0.50
2023-03-27T23:44:50.775Z,0.50
2023-03-27T23:47:40.698Z,0.60
2023-03-27T23:56:13.414Z,0.60
